createdAt,value
2022-10-21T00:01:08.133Z,25.30
2022-10-21T00:03:36.295Z,25.33
2022-10-21T00:06:04.879Z,25.30
2022-10-21T00:08:32.706Z,25.32
2022-10-21T00:11:02.470Z,25.30
2022-10-21T00:13:31.613Z,25.34
2022-10-21T00:16:06.128Z,25.31
2022-10-21T00:18:36.650Z,25.39
2022-10-21T00:21:18.077Z,25.32
2022-10-21T00:23:57.715Z,25.32
2022-10-21T00:26:25.511Z,25.28
2022-10-21T00:28:57.280Z,25.29
2022-10-21T00:31:25.860Z,25.32
2022-10-21T00:33:56.069Z,25.24
2022-10-21T00:36:23.615Z,25.25
2022-10-21T00:38:51.098Z,25.22
2022-10-21T00:41:20.130Z,25.25
2022-10-21T00:43:59.213Z,25.27
2022-10-21T00:46:34.949Z,25.20
2022-10-21T00:49:07.570Z,25.19
2022-10-21T00:51:35.803Z,25.21
2022-10-21T00:54:04.590Z,25.23
2022-10-21T00:56:34.387Z,25.28
2022-10-21T00:59:03.952Z,25.27
2022-10-21T01:01:34.096Z,25.22
2022-10-21T01:04:05.892Z,25.24
2022-10-21T01:06:35.430Z,25.31
2022-10-21T01:09:05.553Z,25.37
2022-10-21T01:11:40.733Z,25.43
2022-10-21T01:14:26.870Z,25.52
2022-10-21T01:17:26.254Z,25.57
2022-10-21T01:20:26.990Z,25.48
2022-10-21T01:23:31.456Z,25.50
2022-10-21T01:26:39.322Z,25.63
2022-10-21T01:29:33.193Z,25.67
2022-10-21T01:32:21.074Z,25.59
2022-10-21T01:35:11.632Z,25.57
2022-10-21T01:38:04.177Z,25.58
2022-10-21T01:40:45.396Z,25.48
2022-10-21T01:43:30.975Z,25.41
2022-10-21T01:46:14.667Z,25.44
2022-10-21T01:48:46.196Z,25.39
2022-10-21T01:51:16.799Z,25.42
2022-10-21T01:53:51.419Z,25.38
2022-10-21T01:56:20.459Z,25.41
2022-10-21T01:58:49.432Z,25.35
2022-10-21T02:01:21.721Z,25.33
2022-10-21T02:03:58.265Z,25.33
2022-10-21T02:06:27.135Z,25.30
2022-10-21T02:08:55.032Z,25.27
2022-10-21T02:11:28.066Z,25.24
2022-10-21T02:14:06.329Z,25.18
2022-10-21T02:16:40.132Z,25.20
2022-10-21T02:19:18.114Z,25.20
2022-10-21T02:21:48.523Z,25.21
2022-10-21T02:24:35.990Z,25.19
2022-10-21T02:27:06.167Z,25.18
2022-10-21T02:29:37.410Z,25.16
2022-10-21T02:32:42.905Z,25.11
2022-10-21T02:35:13.302Z,25.11
2022-10-21T02:37:48.797Z,25.11
2022-10-21T02:40:22.679Z,25.10
2022-10-21T02:42:55.622Z,25.11
2022-10-21T02:45:26.131Z,25.05
2022-10-21T02:47:53.546Z,25.06
2022-10-21T02:50:21.123Z,25.02
2022-10-21T02:52:48.862Z,25.06
2022-10-21T02:55:16.448Z,25.04
2022-10-21T02:57:44.013Z,25.09
2022-10-21T03:00:12.410Z,25.06
2022-10-21T03:02:42.330Z,25.08
2022-10-21T03:05:10.527Z,25.05
2022-10-21T03:07:41.365Z,25.07
2022-10-21T03:10:09.537Z,25.07
2022-10-21T03:12:37.070Z,25.08
2022-10-21T03:15:04.898Z,25.14
2022-10-21T03:17:32.321Z,25.08
2022-10-21T03:20:04.982Z,25.05
2022-10-21T03:22:38.239Z,25.07
2022-10-21T03:25:06.468Z,25.04
2022-10-21T03:27:33.909Z,25.05
2022-10-21T03:30:08.503Z,25.04
2022-10-21T03:32:36.177Z,25.04
2022-10-21T03:35:04.154Z,25.01
2022-10-21T03:37:31.662Z,25.02
2022-10-21T03:39:59.054Z,25.04
2022-10-21T03:42:28.094Z,25.05
2022-10-21T03:45:00.866Z,25.07
2022-10-21T03:47:28.544Z,25.06
2022-10-21T03:49:58.566Z,25.08
2022-10-21T03:52:26.190Z,25.06
2022-10-21T03:54:53.637Z,25.08
2022-10-21T03:57:23.510Z,25.02
2022-10-21T03:59:54.073Z,25.08
2022-10-21T04:02:24.429Z,24.99
2022-10-21T04:04:52.144Z,24.96
2022-10-21T04:07:22.389Z,24.98
2022-10-21T04:09:49.731Z,24.97
2022-10-21T04:12:17.207Z,25.00
2022-10-21T04:14:44.885Z,25.02
2022-10-21T04:17:12.432Z,25.00
2022-10-21T04:19:42.966Z,24.94
2022-10-21T04:22:10.743Z,24.98
2022-10-21T04:24:38.090Z,25.00
2022-10-21T04:27:11.150Z,24.96
2022-10-21T04:29:41.085Z,24.91
2022-10-21T04:32:08.570Z,24.91
2022-10-21T04:34:35.989Z,24.90
2022-10-21T04:37:05.184Z,24.92
2022-10-21T04:39:33.273Z,24.87
2022-10-21T04:42:04.282Z,24.90
2022-10-21T04:44:35.029Z,24.91
2022-10-21T04:47:04.611Z,24.92
2022-10-21T04:49:32.163Z,24.88
2022-10-21T04:52:01.760Z,24.90
2022-10-21T04:54:31.491Z,24.89
2022-10-21T04:57:02.159Z,24.87
2022-10-21T04:59:29.670Z,24.89
2022-10-21T05:01:59.484Z,24.87
2022-10-21T05:04:27.015Z,24.85
2022-10-21T05:06:54.509Z,24.87
2022-10-21T05:09:21.869Z,24.92
2022-10-21T05:11:54.966Z,24.92
2022-10-21T05:14:23.054Z,24.90
2022-10-21T05:16:51.208Z,24.91
2022-10-21T05:19:19.898Z,24.94
2022-10-21T05:21:47.625Z,24.89
2022-10-21T05:24:16.377Z,24.87
2022-10-21T05:26:44.078Z,24.90
2022-10-21T05:29:11.818Z,24.91
2022-10-21T05:31:39.506Z,24.91
2022-10-21T05:34:10.392Z,24.90
2022-10-21T05:36:38.073Z,24.89
2022-10-21T05:39:11.647Z,24.90
2022-10-21T05:41:41.069Z,24.89
2022-10-21T05:44:11.293Z,24.90
2022-10-21T05:46:39.020Z,24.86
2022-10-21T05:49:07.069Z,24.86
2022-10-21T05:51:34.636Z,24.89
2022-10-21T05:54:03.989Z,24.92
2022-10-21T05:56:32.372Z,25.05
2022-10-21T05:59:04.460Z,25.14
2022-10-21T06:01:34.544Z,25.36
2022-10-21T06:04:05.565Z,25.50
2022-10-21T06:06:35.536Z,25.55
2022-10-21T06:09:03.734Z,25.61
2022-10-21T06:11:31.852Z,25.84
2022-10-21T06:14:00.225Z,26.13
2022-10-21T06:16:27.610Z,26.38
2022-10-21T06:18:58.091Z,26.37
2022-10-21T06:21:26.578Z,26.36
2022-10-21T06:23:56.814Z,26.65
2022-10-21T06:26:24.290Z,26.99
2022-10-21T06:28:51.740Z,27.16
2022-10-21T06:31:21.779Z,27.17
2022-10-21T06:33:50.161Z,26.90
2022-10-21T06:36:17.640Z,26.81
2022-10-21T06:38:47.383Z,26.56
2022-10-21T06:41:15.786Z,26.46
2022-10-21T06:43:46.456Z,26.32
2022-10-21T06:46:15.617Z,26.30
2022-10-21T06:48:43.542Z,26.21
2022-10-21T06:51:16.259Z,26.13
2022-10-21T06:53:45.291Z,25.99
2022-10-21T06:56:19.982Z,26.11
2022-10-21T06:58:49.961Z,26.62
2022-10-21T07:01:41.769Z,27.08
2022-10-21T07:04:32.186Z,27.44
2022-10-21T07:07:00.007Z,27.17
2022-10-21T07:09:30.845Z,27.03
2022-10-21T07:12:05.028Z,26.85
2022-10-21T07:14:39.303Z,26.60
2022-10-21T07:17:10.303Z,26.38
2022-10-21T07:19:44.904Z,26.26
2022-10-21T07:22:18.127Z,26.05
2022-10-21T07:24:48.590Z,25.86
2022-10-21T07:27:19.845Z,25.81
2022-10-21T07:29:50.978Z,25.71
2022-10-21T07:32:22.370Z,25.81
2022-10-21T07:34:54.268Z,25.87
2022-10-21T07:37:22.725Z,25.88
2022-10-21T07:39:54.913Z,25.90
2022-10-21T07:42:31.481Z,25.87
2022-10-21T07:45:12.176Z,25.90
2022-10-21T07:47:40.391Z,25.90
2022-10-21T07:50:21.305Z,25.83
2022-10-21T07:52:58.369Z,25.85
2022-10-21T07:55:35.007Z,25.83
2022-10-21T07:58:07.953Z,25.72
2022-10-21T08:00:36.028Z,25.62
2022-10-21T08:03:07.012Z,25.60
2022-10-21T08:05:37.316Z,25.53
2022-10-21T08:08:08.078Z,25.46
2022-10-21T08:10:46.349Z,25.45
2022-10-21T08:13:20.553Z,25.41
2022-10-21T08:15:53.580Z,25.35
2022-10-21T08:18:27.417Z,25.33
2022-10-21T08:20:57.508Z,25.35
2022-10-21T08:23:26.681Z,25.32
2022-10-21T08:26:00.979Z,25.22
2022-10-21T08:28:36.329Z,25.21
2022-10-21T08:31:11.017Z,25.24
2022-10-21T08:33:42.359Z,25.25
2022-10-21T08:36:17.567Z,25.20
2022-10-21T08:38:46.720Z,25.26
2022-10-21T08:41:32.549Z,25.23
2022-10-21T08:44:22.925Z,25.20
2022-10-21T08:47:07.302Z,25.16
2022-10-21T08:50:30.681Z,25.16
2022-10-21T08:53:21.442Z,25.17
2022-10-21T08:56:05.484Z,25.17
2022-10-21T08:58:34.238Z,25.18
2022-10-21T09:01:22.914Z,25.14
2022-10-21T09:04:15.655Z,25.16
2022-10-21T09:07:07.324Z,25.17
2022-10-21T09:09:54.351Z,25.09
2022-10-21T09:12:43.550Z,25.19
2022-10-21T09:15:26.243Z,25.67
2022-10-21T09:18:10.066Z,26.08
2022-10-21T09:20:43.933Z,26.00
2022-10-21T09:23:37.627Z,26.06
2022-10-21T09:26:16.996Z,26.66
2022-10-21T09:28:47.041Z,27.26
2022-10-21T09:31:21.688Z,27.24
2022-10-21T09:33:59.870Z,27.19
2022-10-21T09:36:48.118Z,27.47
2022-10-21T09:39:48.907Z,27.11
2022-10-21T09:42:42.731Z,27.17
2022-10-21T09:45:27.801Z,26.85
2022-10-21T09:48:23.547Z,27.15
2022-10-21T09:50:59.002Z,27.02
2022-10-21T09:53:34.678Z,26.71
2022-10-21T09:56:13.681Z,26.64
2022-10-21T09:58:41.187Z,26.44
2022-10-21T10:01:09.419Z,26.34
2022-10-21T10:03:48.301Z,26.23
2022-10-21T10:06:42.690Z,26.09
2022-10-21T10:09:31.029Z,26.03
2022-10-21T10:12:20.600Z,26.03
2022-10-21T10:14:54.124Z,25.78
2022-10-21T10:17:39.931Z,25.66
2022-10-21T10:20:18.925Z,25.58
2022-10-21T10:22:59.078Z,25.64
2022-10-21T10:25:38.938Z,25.55
2022-10-21T10:28:11.703Z,25.57
2022-10-21T10:30:42.304Z,25.61
2022-10-21T10:33:17.383Z,25.56
2022-10-21T10:35:52.864Z,25.55
2022-10-21T10:38:27.405Z,25.49
2022-10-21T10:41:07.122Z,25.52
2022-10-21T10:43:43.588Z,25.51
2022-10-21T10:46:23.912Z,25.43
2022-10-21T10:48:58.121Z,25.44
2022-10-21T10:51:30.331Z,25.39
2022-10-21T10:54:07.048Z,25.49
2022-10-21T10:56:45.450Z,25.36
2022-10-21T10:59:39.517Z,25.38
2022-10-21T11:02:12.224Z,25.38
2022-10-21T11:05:18.291Z,25.36
2022-10-21T11:08:02.414Z,25.30
2022-10-21T11:10:46.355Z,25.25
2022-10-21T11:13:19.504Z,25.22
2022-10-21T11:16:12.102Z,25.22
2022-10-21T11:18:49.790Z,25.16
2022-10-21T11:21:46.607Z,25.22
2022-10-21T11:24:45.860Z,25.20
2022-10-21T11:27:39.185Z,25.33
2022-10-21T11:30:23.618Z,25.32
2022-10-21T11:33:10.971Z,25.40
2022-10-21T11:36:05.960Z,25.43
2022-10-21T11:39:04.278Z,25.58
2022-10-21T11:42:27.446Z,25.59
2022-10-21T11:45:17.801Z,25.59
2022-10-21T11:47:56.580Z,25.63
2022-10-21T11:50:33.293Z,25.60
2022-10-21T11:53:32.316Z,25.68
2022-10-21T11:56:31.067Z,25.62
2022-10-21T11:59:16.917Z,25.67
2022-10-21T12:02:05.348Z,25.69
2022-10-21T12:04:50.223Z,25.78
2022-10-21T12:07:27.678Z,25.70
2022-10-21T12:10:13.943Z,25.74
2022-10-21T12:12:46.945Z,25.77
2022-10-21T12:15:20.744Z,25.75
2022-10-21T12:17:55.767Z,25.86
2022-10-21T12:20:27.283Z,25.80
2022-10-21T12:23:01.475Z,25.81
2022-10-21T12:25:38.693Z,25.69
2022-10-21T12:28:29.691Z,25.75
2022-10-21T12:31:13.710Z,25.71
2022-10-21T12:33:45.457Z,25.70
2022-10-21T12:36:26.493Z,25.85
2022-10-21T12:38:59.544Z,25.78
2022-10-21T12:41:32.132Z,25.82
2022-10-21T12:44:13.873Z,26.00
2022-10-21T12:47:01.226Z,25.98
2022-10-21T12:49:36.630Z,25.98
2022-10-21T12:52:23.367Z,25.97
2022-10-21T12:55:08.028Z,25.78
2022-10-21T12:57:43.974Z,25.75
2022-10-21T13:00:27.167Z,25.64
2022-10-21T13:03:04.042Z,25.64
2022-10-21T13:05:37.680Z,25.51
2022-10-21T13:08:15.638Z,25.58
2022-10-21T13:11:08.457Z,25.70
2022-10-21T13:13:36.270Z,25.73
2022-10-21T13:16:16.992Z,25.75
2022-10-21T13:19:03.588Z,25.67
2022-10-21T13:21:47.402Z,25.66
2022-10-21T13:24:29.936Z,25.66
2022-10-21T13:27:24.441Z,25.59
2022-10-21T13:29:56.295Z,25.66
2022-10-21T13:32:34.799Z,25.55
2022-10-21T13:35:07.992Z,25.43
2022-10-21T13:37:54.878Z,25.58
2022-10-21T13:40:46.338Z,25.51
2022-10-21T13:43:19.083Z,25.45
2022-10-21T13:45:55.097Z,25.41
2022-10-21T13:48:26.386Z,25.41
2022-10-21T13:50:55.138Z,25.48
2022-10-21T13:53:38.715Z,25.59
2022-10-21T13:56:31.731Z,25.60
2022-10-21T13:59:11.127Z,25.90
2022-10-21T14:01:51.172Z,25.94
2022-10-21T14:04:30.621Z,26.09
2022-10-21T14:07:08.182Z,26.07
2022-10-21T14:09:49.844Z,26.21
2022-10-21T14:12:36.540Z,26.39
2022-10-21T14:15:19.438Z,26.52
2022-10-21T14:17:55.615Z,26.57
2022-10-21T14:20:35.044Z,26.68
2022-10-21T14:23:08.765Z,26.69
2022-10-21T14:25:36.940Z,26.65
2022-10-21T14:28:08.496Z,26.65
2022-10-21T14:30:41.997Z,26.75
2022-10-21T14:33:15.483Z,26.81
2022-10-21T14:35:46.246Z,27.10
2022-10-21T14:38:55.808Z,27.20
2022-10-21T14:41:30.846Z,27.27
2022-10-21T14:44:07.753Z,27.18
2022-10-21T14:46:45.469Z,27.42
2022-10-21T14:49:35.217Z,27.36
2022-10-21T14:52:09.196Z,27.26
2022-10-21T14:54:58.150Z,27.15
2022-10-21T14:57:32.640Z,27.04
2022-10-21T15:00:03.297Z,27.05
2022-10-21T15:02:36.381Z,27.09
2022-10-21T15:05:33.542Z,26.97
2022-10-21T15:08:22.791Z,26.92
2022-10-21T15:11:08.254Z,26.98
2022-10-21T15:13:39.616Z,26.94
2022-10-21T15:16:25.069Z,26.93
2022-10-21T15:19:05.933Z,26.93
2022-10-21T15:22:03.743Z,26.81
2022-10-21T15:24:50.667Z,26.86
2022-10-21T15:27:28.268Z,26.91
2022-10-21T15:29:56.529Z,27.00
2022-10-21T15:32:30.456Z,26.79
2022-10-21T15:35:04.269Z,26.72
2022-10-21T15:37:31.770Z,26.80
2022-10-21T15:40:05.512Z,26.86
2022-10-21T15:42:35.959Z,26.80
2022-10-21T15:45:18.656Z,26.76
2022-10-21T15:47:59.194Z,26.87
2022-10-21T15:50:32.078Z,26.77
2022-10-21T15:53:03.018Z,26.87
2022-10-21T15:55:39.331Z,26.81
2022-10-21T15:58:10.882Z,26.70
2022-10-21T16:00:57.636Z,26.74
2022-10-21T16:03:52.522Z,26.72
2022-10-21T16:06:48.899Z,26.72
2022-10-21T16:09:47.034Z,26.61
2022-10-21T16:13:01.935Z,26.66
2022-10-21T16:15:54.613Z,26.86
2022-10-21T16:18:46.963Z,26.67
2022-10-21T16:21:47.831Z,26.82
2022-10-21T16:24:45.009Z,26.76
2022-10-21T16:27:55.660Z,26.71
2022-10-21T16:30:51.219Z,26.74
2022-10-21T16:34:00.152Z,26.76
2022-10-21T16:36:56.649Z,26.66
2022-10-21T16:39:48.640Z,26.85
2022-10-21T16:42:37.222Z,26.81
2022-10-21T16:45:22.645Z,26.78
2022-10-21T16:48:29.069Z,26.72
2022-10-21T16:51:18.516Z,26.59
2022-10-21T16:54:12.084Z,26.67
2022-10-21T16:57:00.341Z,26.65
2022-10-21T17:02:58.207Z,26.72
2022-10-21T17:08:46.691Z,26.70
2022-10-21T17:14:51.478Z,26.68
2022-10-21T17:18:03.977Z,26.77
2022-10-21T17:20:52.463Z,26.82
2022-10-21T17:26:55.003Z,26.69
2022-10-21T17:30:03.615Z,26.66
2022-10-21T17:32:55.184Z,26.53
2022-10-21T17:35:51.793Z,26.60
2022-10-21T17:41:54.617Z,26.62
2022-10-21T17:45:04.110Z,26.63
2022-10-21T17:48:04.618Z,26.63
2022-10-21T17:50:57.747Z,26.58
2022-10-21T17:53:49.491Z,26.65
2022-10-21T17:56:45.258Z,26.59
2022-10-21T17:59:34.900Z,26.53
2022-10-21T18:05:16.246Z,26.58
2022-10-21T18:07:43.886Z,26.37
2022-10-21T18:10:17.284Z,26.29
2022-10-21T18:12:51.341Z,26.50
2022-10-21T18:15:22.485Z,26.49
2022-10-21T18:17:55.244Z,26.55
2022-10-21T18:20:25.809Z,26.57
2022-10-21T18:22:58.474Z,26.57
2022-10-21T18:25:29.599Z,26.63
2022-10-21T18:27:57.086Z,26.56
2022-10-21T18:30:29.612Z,26.51
2022-10-21T18:33:00.285Z,26.56
2022-10-21T18:35:33.818Z,26.51
2022-10-21T18:38:03.850Z,26.65
2022-10-21T18:40:33.886Z,26.72
2022-10-21T18:43:07.370Z,26.53
2022-10-21T18:45:36.930Z,26.60
2022-10-21T18:48:05.123Z,26.51
2022-10-21T18:50:38.333Z,26.43
2022-10-21T18:53:14.406Z,26.45
2022-10-21T18:55:49.051Z,26.44
2022-10-21T18:58:19.176Z,26.37
2022-10-21T19:00:46.757Z,26.34
2022-10-21T19:03:14.299Z,26.38
2022-10-21T19:05:47.472Z,26.47
2022-10-21T19:08:22.678Z,26.55
2022-10-21T19:10:50.330Z,26.60
2022-10-21T19:13:18.597Z,26.49
2022-10-21T19:15:53.287Z,26.40
2022-10-21T19:18:27.910Z,26.39
2022-10-21T19:20:57.693Z,26.27
2022-10-21T19:23:27.922Z,26.24
2022-10-21T19:25:56.772Z,26.46
2022-10-21T19:28:24.327Z,26.40
2022-10-21T19:30:53.275Z,26.47
2022-10-21T19:33:26.130Z,26.36
2022-10-21T19:35:54.691Z,26.50
2022-10-21T19:38:39.598Z,26.49
2022-10-21T19:41:12.636Z,26.30
2022-10-21T19:43:43.192Z,26.43
2022-10-21T19:46:19.955Z,26.48
2022-10-21T19:48:52.858Z,26.34
2022-10-21T19:51:22.682Z,26.36
2022-10-21T19:53:54.058Z,26.34
2022-10-21T19:56:29.543Z,26.29
2022-10-21T19:59:04.696Z,26.21
2022-10-21T20:01:36.932Z,26.18
2022-10-21T20:04:09.836Z,26.13
2022-10-21T20:06:40.252Z,26.07
2022-10-21T20:09:15.197Z,26.12
2022-10-21T20:11:46.070Z,26.21
2022-10-21T20:14:14.094Z,26.38
2022-10-21T20:16:44.702Z,26.35
2022-10-21T20:19:12.860Z,26.31
2022-10-21T20:21:41.592Z,26.33
2022-10-21T20:24:10.716Z,26.36
2022-10-21T20:26:40.678Z,26.38
2022-10-21T20:29:08.809Z,26.45
2022-10-21T20:31:41.783Z,26.39
2022-10-21T20:34:13.468Z,26.42
2022-10-21T20:36:45.580Z,26.27
2022-10-21T20:39:14.694Z,26.27
2022-10-21T20:41:47.327Z,26.45
2022-10-21T20:44:16.382Z,26.24
2022-10-21T20:46:45.459Z,26.42
2022-10-21T20:49:15.549Z,26.51
2022-10-21T20:51:44.182Z,26.37
2022-10-21T20:54:19.943Z,26.32
2022-10-21T20:56:53.096Z,26.32
2022-10-21T20:59:22.947Z,26.44
2022-10-21T21:01:50.493Z,26.35
2022-10-21T21:04:23.641Z,26.21
2022-10-21T21:06:52.331Z,26.20
2022-10-21T21:09:43.639Z,26.32
2022-10-21T21:12:12.075Z,26.49
2022-10-21T21:14:39.826Z,26.40
2022-10-21T21:17:09.728Z,26.24
2022-10-21T21:19:45.735Z,26.22
2022-10-21T21:22:13.195Z,26.17
2022-10-21T21:24:41.837Z,26.17
2022-10-21T21:27:12.396Z,26.16
2022-10-21T21:29:42.522Z,26.12
2022-10-21T21:32:12.626Z,26.15
2022-10-21T21:34:42.553Z,26.23
2022-10-21T21:37:12.516Z,26.29
2022-10-21T21:39:42.253Z,26.15
2022-10-21T21:42:14.732Z,26.32
2022-10-21T21:44:48.206Z,26.17
2022-10-21T21:47:18.516Z,26.24
2022-10-21T21:49:46.670Z,26.17
2022-10-21T21:52:18.094Z,26.14
2022-10-21T21:54:49.503Z,26.10
2022-10-21T21:57:33.851Z,26.14
2022-10-21T22:00:07.446Z,26.12
2022-10-21T22:02:37.666Z,26.08
2022-10-21T22:05:05.726Z,26.06
2022-10-21T22:07:33.336Z,26.09
2022-10-21T22:10:03.277Z,26.08
2022-10-21T22:12:38.039Z,26.02
2022-10-21T22:15:13.637Z,26.07
2022-10-21T22:17:47.260Z,26.11
2022-10-21T22:20:18.357Z,26.10
2022-10-21T22:22:53.948Z,26.12
2022-10-21T22:25:28.517Z,26.04
2022-10-21T22:27:58.133Z,26.04
2022-10-21T22:30:28.118Z,26.18
2022-10-21T22:33:03.581Z,26.09
2022-10-21T22:35:31.124Z,26.07
2022-10-21T22:37:58.535Z,26.20
2022-10-21T22:40:28.182Z,26.25
2022-10-21T22:42:58.526Z,26.09
2022-10-21T22:45:26.820Z,26.09
2022-10-21T22:47:57.700Z,26.25
2022-10-21T22:50:25.142Z,26.19
2022-10-21T22:53:00.325Z,26.10
2022-10-21T22:55:30.879Z,26.09
2022-10-21T22:58:06.197Z,26.13
2022-10-21T23:00:34.087Z,26.11
2022-10-21T23:03:03.236Z,26.15
2022-10-21T23:05:38.801Z,26.08
2022-10-21T23:08:09.728Z,26.05
2022-10-21T23:10:38.604Z,26.04
2022-10-21T23:13:14.525Z,26.23
2022-10-21T23:15:41.968Z,26.30
2022-10-21T23:18:15.235Z,26.13
2022-10-21T23:20:48.278Z,26.32
2022-10-21T23:23:18.719Z,26.12
2022-10-21T23:25:46.284Z,26.04
2022-10-21T23:30:54.946Z,26.26
2022-10-21T23:33:25.858Z,26.09
2022-10-21T23:35:53.901Z,26.22
2022-10-21T23:38:24.097Z,26.17
2022-10-21T23:40:53.881Z,26.23
2022-10-21T23:43:21.975Z,26.06
2022-10-21T23:45:54.178Z,26.16
2022-10-21T23:48:27.277Z,26.19
2022-10-21T23:50:55.011Z,26.14
2022-10-21T23:53:25.715Z,26.16
2022-10-21T23:55:56.514Z,26.03
2022-10-21T23:58:24.026Z,26.01
